Puerto Vallarta, Mexico

10:46 AM CST on February 08, 2016 (GMT -0600)
Lic Gustavo Diaz Ordaz International | | Change Station
CLOSE
Current Station
Airport
Location: Puerto Vallarta,
Elevation: 20 ft
Nearby Weather Stations

Elev 20 ft 20.68 °N, 105.25 °W | Updated 1 hour ago

Overcast
Overcast
70 °F
Feels Like 70 °F
N
4
Wind Variable Wind from North

Today
High -- | Low -- °F
--% Chance of Precip.
Yesterday
High -- | Low -- °F
Precip. -- in
Pressure 29.91 in
Visibility 12.0 miles
Clouds Scattered Clouds 12000 ft
Mostly Cloudy 14000 ft
Overcast 25000 ft
Dew Point 59 °F
Humidity 68%
Rainfall 0.00 in
Snow Depth Not available.
7:34 AM 6:55 PM
New Moon, 0% visible
METAR MMPR 081546Z 01003KT 12SM SCT120 BKN140 OVC250 21/15 A2991 RMK 8/077
Pressure 29.91 in
Visibility 12.0 miles
Clouds Scattered Clouds 12000 ft
Mostly Cloudy 14000 ft
Overcast 25000 ft
Dew Point 59 °F
Humidity 68%
Rainfall 0.00 in
Snow Depth Not available.
7:34 AM 6:55 PM
New Moon, 0% visible
METAR MMPR 081546Z 01003KT 12SM SCT120 BKN140 OVC250 21/15 A2991 RMK 8/077

10-Day Weather Forecast

No radar image for this location.
×

Almanac

Astronomy

Feb. 08, 2016 Rise Set
Actual Time
Civil Twilight
Nautical Twilight
Astronomical Twilight
Moon
Length of Visible Light
Length of Day
Tomorrow will be .
, % of the Moon is Illuminated

Today's Extremes

Country Highs Country Lows

Community

WunderPhotos

Upload Photos

1,891,462 photos uploaded!

WunderBlog® & News

Nearby

Air Quality

  Air Quality AQ Index Pollutant
Not available.

Snow Depth

Station Depth Elevation

Earthquake Activity

City Distance Mag. Time & Date
Minimum magnitude displayed is 2.5.

Coastal Water Temperatures

Place Temperature

Stations

Nearby Weather Stations

Station Location Temp. Windchill Dew Point Humidity Wind Precip. Elev Updated Type